createdAt,value
2017-01-15T00:00:38.576Z,502
2017-01-15T00:01:38.705Z,500
2017-01-15T00:02:38.781Z,503
2017-01-15T00:03:38.890Z,504
2017-01-15T00:04:38.978Z,506
2017-01-15T00:05:39.083Z,512
2017-01-15T00:06:39.184Z,511
2017-01-15T00:07:39.271Z,509
2017-01-15T00:08:39.378Z,507
2017-01-15T00:09:39.464Z,507
2017-01-15T00:10:39.543Z,509
2017-01-15T00:11:39.632Z,511
2017-01-15T00:12:39.751Z,512
2017-01-15T00:13:39.918Z,512
2017-01-15T00:14:40.036Z,512
2017-01-15T00:15:40.169Z,512
2017-01-15T00:16:40.277Z,512
2017-01-15T00:17:40.371Z,512
2017-01-15T00:18:40.464Z,516
2017-01-15T00:19:40.562Z,517
2017-01-15T00:20:40.651Z,517
2017-01-15T00:21:40.774Z,515
2017-01-15T00:22:40.863Z,516
2017-01-15T00:23:41.666Z,513
2017-01-15T00:24:41.082Z,513
2017-01-15T00:25:41.191Z,512
2017-01-15T00:26:41.308Z,513
2017-01-15T00:27:41.424Z,534
2017-01-15T00:28:41.544Z,544
2017-01-15T00:29:41.630Z,547
2017-01-15T00:30:41.705Z,545
2017-01-15T00:31:41.855Z,543
2017-01-15T00:32:41.951Z,538
2017-01-15T00:33:42.040Z,536
2017-01-15T00:34:42.134Z,533
2017-01-15T00:35:42.253Z,534
2017-01-15T00:36:42.338Z,533
2017-01-15T00:37:42.439Z,533
2017-01-15T00:38:42.522Z,534
2017-01-15T00:39:42.638Z,532
2017-01-15T00:40:44.167Z,529
2017-01-15T00:41:42.819Z,524
2017-01-15T00:42:42.972Z,524
2017-01-15T00:43:43.079Z,523
2017-01-15T00:44:43.194Z,523
2017-01-15T00:45:43.318Z,522
2017-01-15T00:46:43.423Z,518
2017-01-15T00:47:43.551Z,518
2017-01-15T00:48:43.638Z,517
2017-01-15T00:49:43.784Z,515
2017-01-15T00:50:43.889Z,513
2017-01-15T00:51:44.034Z,510
2017-01-15T00:52:44.161Z,510
2017-01-15T00:53:44.294Z,508
2017-01-15T00:54:44.389Z,506
2017-01-15T00:55:44.483Z,503
2017-01-15T00:56:44.558Z,503
2017-01-15T00:57:45.166Z,500
2017-01-15T00:58:44.706Z,486
2017-01-15T00:59:44.863Z,494
2017-01-15T01:00:45.666Z,493
2017-01-15T01:01:45.063Z,500
2017-01-15T01:02:45.216Z,499
2017-01-15T01:03:45.332Z,499
2017-01-15T01:04:45.432Z,499
2017-01-15T01:05:45.498Z,498
2017-01-15T01:06:45.671Z,492
2017-01-15T01:07:45.768Z,488
2017-01-15T01:08:46.670Z,479
2017-01-15T01:09:45.907Z,483
2017-01-15T01:10:45.974Z,487
2017-01-15T01:11:46.073Z,487
2017-01-15T01:12:46.159Z,484
2017-01-15T01:13:46.302Z,485
2017-01-15T01:14:46.415Z,487
2017-01-15T01:15:46.527Z,485
2017-01-15T01:16:46.610Z,484
2017-01-15T01:17:46.731Z,486
2017-01-15T01:18:46.811Z,486
2017-01-15T01:19:46.909Z,483
2017-01-15T01:20:47.010Z,479
2017-01-15T01:21:47.112Z,479
2017-01-15T01:22:47.251Z,468
2017-01-15T01:23:47.346Z,471
2017-01-15T01:24:47.412Z,473
2017-01-15T01:25:47.507Z,473
2017-01-15T01:26:47.618Z,473
2017-01-15T01:27:47.722Z,464
2017-01-15T01:28:47.829Z,476
2017-01-15T01:29:47.902Z,474
2017-01-15T01:30:48.014Z,473
2017-01-15T01:31:48.143Z,474
2017-01-15T01:32:48.229Z,509
2017-01-15T01:33:48.343Z,515
2017-01-15T01:34:48.506Z,507
2017-01-15T01:35:48.611Z,508
2017-01-15T01:36:48.715Z,482
2017-01-15T01:37:48.824Z,468
2017-01-15T01:38:48.889Z,476
2017-01-15T01:39:49.030Z,479
2017-01-15T01:40:49.123Z,527
2017-01-15T01:41:49.230Z,464
2017-01-15T01:42:49.319Z,475
2017-01-15T01:43:49.431Z,479
2017-01-15T01:44:49.608Z,480
2017-01-15T01:45:49.677Z,479
2017-01-15T01:46:49.762Z,476
2017-01-15T01:47:49.851Z,476
2017-01-15T01:48:49.925Z,479
2017-01-15T01:49:49.991Z,481
2017-01-15T01:50:50.081Z,484
2017-01-15T01:51:50.188Z,482
2017-01-15T01:52:50.263Z,480
2017-01-15T01:53:50.341Z,482
2017-01-15T01:54:50.453Z,478
2017-01-15T01:55:50.573Z,479
2017-01-15T01:56:50.644Z,477
2017-01-15T01:57:50.763Z,477
2017-01-15T01:58:50.854Z,488
2017-01-15T01:59:50.975Z,474
2017-01-15T02:00:51.140Z,494
2017-01-15T02:01:51.284Z,455
2017-01-15T02:02:51.371Z,479
2017-01-15T02:03:51.452Z,475
2017-01-15T02:04:51.567Z,480
2017-01-15T02:05:51.659Z,477
2017-01-15T02:06:51.763Z,475
2017-01-15T02:07:51.884Z,477
2017-01-15T02:08:51.988Z,475
2017-01-15T02:09:52.093Z,481
2017-01-15T02:10:52.194Z,481
2017-01-15T02:11:52.273Z,481
2017-01-15T02:12:52.354Z,483
2017-01-15T02:13:52.441Z,480
2017-01-15T02:14:52.520Z,474
2017-01-15T02:15:52.608Z,478
2017-01-15T02:16:52.684Z,530
2017-01-15T02:17:52.782Z,525
2017-01-15T02:18:52.869Z,463
2017-01-15T02:19:52.956Z,473
2017-01-15T02:20:53.049Z,469
2017-01-15T02:21:53.142Z,474
2017-01-15T02:22:53.209Z,480
2017-01-15T02:23:53.320Z,519
2017-01-15T02:24:54.312Z,483
2017-01-15T02:25:54.398Z,482
2017-01-15T02:26:54.538Z,467
2017-01-15T02:27:54.701Z,481
2017-01-15T02:28:54.825Z,497
2017-01-15T02:29:54.943Z,486
2017-01-15T02:30:55.024Z,481
2017-01-15T02:31:56.195Z,485
2017-01-15T02:32:55.198Z,491
2017-01-15T02:33:55.263Z,489
2017-01-15T02:34:55.412Z,488
2017-01-15T02:35:55.568Z,487
2017-01-15T02:36:55.673Z,480
2017-01-15T02:37:55.762Z,487
2017-01-15T02:38:55.877Z,473
2017-01-15T02:39:55.984Z,495
2017-01-15T02:40:56.066Z,481
2017-01-15T02:41:56.144Z,481
2017-01-15T02:42:56.231Z,484
2017-01-15T02:43:56.358Z,486
2017-01-15T02:44:56.490Z,483
2017-01-15T02:45:56.581Z,489
2017-01-15T02:46:56.660Z,483
2017-01-15T02:47:56.795Z,474
2017-01-15T02:48:56.874Z,480
2017-01-15T02:49:57.019Z,483
2017-01-15T02:50:57.112Z,480
2017-01-15T02:51:57.210Z,481
2017-01-15T02:52:57.505Z,480
2017-01-15T02:53:57.626Z,477
2017-01-15T02:54:57.719Z,470
2017-01-15T02:55:57.820Z,476
2017-01-15T02:56:58.057Z,467
2017-01-15T02:57:58.152Z,464
2017-01-15T02:58:58.271Z,466
2017-01-15T02:59:58.360Z,469
2017-01-15T03:00:58.428Z,476
2017-01-15T03:01:58.595Z,476
2017-01-15T03:02:58.692Z,478
2017-01-15T03:03:58.809Z,476
2017-01-15T03:04:59.716Z,478
2017-01-15T03:05:59.843Z,475
2017-01-15T03:06:59.922Z,484
2017-01-15T03:08:00.049Z,480
2017-01-15T03:09:00.169Z,478
2017-01-15T03:10:00.278Z,477
2017-01-15T03:11:00.391Z,476
2017-01-15T03:12:00.490Z,464
2017-01-15T03:13:00.575Z,468
2017-01-15T03:14:00.668Z,457
2017-01-15T03:15:00.762Z,461
2017-01-15T03:16:00.829Z,467
2017-01-15T03:17:00.913Z,464
2017-01-15T03:18:01.009Z,462
2017-01-15T03:19:01.132Z,467
2017-01-15T03:20:01.223Z,463
2017-01-15T03:21:01.320Z,458
2017-01-15T03:22:01.431Z,452
2017-01-15T03:23:01.585Z,462
2017-01-15T03:24:01.672Z,462
2017-01-15T03:25:01.735Z,464
2017-01-15T03:26:01.904Z,464
2017-01-15T03:27:02.007Z,466
2017-01-15T03:28:02.099Z,462
2017-01-15T03:29:02.160Z,463
2017-01-15T03:30:02.240Z,465
2017-01-15T03:31:02.324Z,463
2017-01-15T03:32:02.419Z,464
2017-01-15T03:33:02.524Z,465
2017-01-15T03:34:02.649Z,461
2017-01-15T03:35:02.761Z,461
2017-01-15T03:36:02.871Z,469
2017-01-15T03:37:02.981Z,472
2017-01-15T03:38:03.117Z,473
2017-01-15T03:39:03.186Z,467
2017-01-15T03:40:03.265Z,468
2017-01-15T03:41:03.460Z,469
2017-01-15T03:42:03.531Z,471
2017-01-15T03:43:03.667Z,472
2017-01-15T03:44:03.753Z,471
2017-01-15T03:45:03.819Z,470
2017-01-15T03:46:03.918Z,471
2017-01-15T03:47:04.055Z,470
2017-01-15T03:48:04.142Z,475
2017-01-15T03:49:04.284Z,471
2017-01-15T03:50:04.455Z,472
2017-01-15T03:51:04.563Z,471
2017-01-15T03:52:04.665Z,470
2017-01-15T03:53:04.776Z,471
2017-01-15T03:54:04.882Z,471
2017-01-15T03:55:04.949Z,471
2017-01-15T03:56:05.018Z,472
2017-01-15T03:57:05.116Z,474
2017-01-15T03:58:05.221Z,473
2017-01-15T03:59:05.430Z,471
2017-01-15T04:00:05.519Z,470
2017-01-15T04:01:05.632Z,470
2017-01-15T04:02:05.761Z,469
2017-01-15T04:03:05.891Z,467
2017-01-15T04:04:05.972Z,513
2017-01-15T04:05:06.046Z,462
2017-01-15T04:06:06.128Z,468
2017-01-15T04:07:06.231Z,469
2017-01-15T04:08:06.309Z,475
2017-01-15T04:09:06.412Z,472
2017-01-15T04:10:06.486Z,475
2017-01-15T04:11:06.595Z,473
2017-01-15T04:12:06.707Z,474
2017-01-15T04:13:06.829Z,474
2017-01-15T04:14:06.946Z,473
2017-01-15T04:15:07.010Z,475
2017-01-15T04:16:07.092Z,474
2017-01-15T04:17:07.181Z,473
2017-01-15T04:18:07.279Z,474
2017-01-15T04:19:07.430Z,476
2017-01-15T04:20:07.567Z,477
2017-01-15T04:21:07.718Z,474
2017-01-15T04:22:07.824Z,478
2017-01-15T04:23:07.915Z,478
2017-01-15T04:24:08.026Z,477
2017-01-15T04:25:08.115Z,477
2017-01-15T04:26:08.213Z,476
2017-01-15T04:27:08.312Z,476
2017-01-15T04:28:08.435Z,473
2017-01-15T04:29:08.569Z,475
2017-01-15T04:30:08.674Z,474
2017-01-15T04:31:08.735Z,478
2017-01-15T04:32:08.820Z,479
2017-01-15T04:33:08.921Z,477
2017-01-15T04:34:08.981Z,472
2017-01-15T04:35:09.103Z,472
2017-01-15T04:36:09.191Z,474
2017-01-15T04:37:09.291Z,474
2017-01-15T04:38:09.372Z,472
2017-01-15T04:39:09.494Z,473
2017-01-15T04:40:09.562Z,473
2017-01-15T04:41:09.703Z,474
2017-01-15T04:42:09.845Z,475
2017-01-15T04:43:09.945Z,474
2017-01-15T04:44:10.051Z,474
2017-01-15T04:45:10.126Z,475
2017-01-15T04:46:10.264Z,474
2017-01-15T04:47:10.375Z,474
2017-01-15T04:48:10.496Z,473
2017-01-15T04:49:10.587Z,475
2017-01-15T04:50:10.688Z,475
2017-01-15T04:51:10.834Z,476
2017-01-15T04:52:10.951Z,474
2017-01-15T04:53:11.072Z,475
2017-01-15T04:54:11.184Z,474
2017-01-15T04:55:11.288Z,473
2017-01-15T04:56:11.422Z,474
2017-01-15T04:57:11.517Z,472
2017-01-15T04:58:11.593Z,472
2017-01-15T04:59:11.720Z,473
2017-01-15T05:00:11.885Z,472
2017-01-15T05:01:11.970Z,471
2017-01-15T05:02:12.106Z,470
2017-01-15T05:03:12.245Z,472
2017-01-15T05:04:12.307Z,474
2017-01-15T05:05:12.429Z,474
2017-01-15T05:06:12.545Z,474
2017-01-15T05:07:12.647Z,472
2017-01-15T05:08:12.739Z,473
2017-01-15T05:09:12.826Z,473
2017-01-15T05:10:12.954Z,473
2017-01-15T05:11:13.055Z,470
2017-01-15T05:12:13.139Z,470
2017-01-15T05:13:13.209Z,474
2017-01-15T05:14:13.323Z,471
2017-01-15T05:15:13.470Z,470
2017-01-15T05:16:13.545Z,473
2017-01-15T05:17:13.616Z,471
2017-01-15T05:18:13.810Z,470
2017-01-15T05:19:13.941Z,470
2017-01-15T05:20:14.068Z,471
2017-01-15T05:21:14.233Z,470
2017-01-15T05:22:14.372Z,471
2017-01-15T05:23:14.488Z,471
2017-01-15T05:24:14.584Z,472
2017-01-15T05:25:14.732Z,471
2017-01-15T05:26:14.828Z,471
2017-01-15T05:27:14.927Z,471
2017-01-15T05:28:15.024Z,470
2017-01-15T05:29:15.143Z,471
2017-01-15T05:30:15.241Z,469
2017-01-15T05:31:15.373Z,470
2017-01-15T05:32:15.511Z,467
2017-01-15T05:33:15.611Z,468
2017-01-15T05:34:15.684Z,468
2017-01-15T05:35:15.799Z,470
2017-01-15T05:36:15.928Z,474
2017-01-15T05:37:16.052Z,473
2017-01-15T05:38:16.167Z,473
2017-01-15T05:39:16.280Z,476
2017-01-15T05:40:16.399Z,474
2017-01-15T05:41:16.551Z,468
2017-01-15T05:42:16.625Z,472
2017-01-15T05:43:16.739Z,471
2017-01-15T05:44:16.849Z,474
2017-01-15T05:45:16.954Z,471
2017-01-15T05:46:17.055Z,472
2017-01-15T05:47:17.245Z,472
2017-01-15T05:48:17.329Z,473
2017-01-15T05:49:17.457Z,474
2017-01-15T05:50:17.600Z,472
2017-01-15T05:51:17.713Z,470
2017-01-15T05:52:17.879Z,469
2017-01-15T05:53:17.997Z,468
2017-01-15T05:54:18.135Z,470
2017-01-15T05:55:18.244Z,470
2017-01-15T05:56:19.230Z,471
2017-01-15T05:57:18.443Z,469
2017-01-15T05:58:18.500Z,468
2017-01-15T05:59:18.578Z,471
2017-01-15T06:00:18.717Z,470
2017-01-15T06:01:18.814Z,468
2017-01-15T06:02:18.934Z,467
2017-01-15T06:03:19.057Z,467
2017-01-15T06:04:19.160Z,468
2017-01-15T06:05:19.245Z,469
2017-01-15T06:06:19.306Z,467
2017-01-15T06:07:19.376Z,467
2017-01-15T06:08:19.497Z,467
2017-01-15T06:09:19.608Z,468
2017-01-15T06:10:19.697Z,468
2017-01-15T06:11:19.806Z,471
2017-01-15T06:12:19.887Z,470
2017-01-15T06:13:20.005Z,468
2017-01-15T06:14:20.082Z,470
2017-01-15T06:15:20.219Z,469
2017-01-15T06:16:20.314Z,471
2017-01-15T06:17:20.429Z,467
2017-01-15T06:18:20.591Z,469
2017-01-15T06:19:20.678Z,488
2017-01-15T06:20:20.800Z,466
2017-01-15T06:21:20.916Z,467
2017-01-15T06:22:21.013Z,469
2017-01-15T06:23:21.161Z,469
2017-01-15T06:24:21.264Z,469
2017-01-15T06:25:21.391Z,469
2017-01-15T06:26:21.477Z,468
2017-01-15T06:27:21.631Z,468
2017-01-15T06:28:21.727Z,467
2017-01-15T06:29:21.804Z,469
2017-01-15T06:30:21.945Z,469
2017-01-15T06:31:22.005Z,468
2017-01-15T06:32:22.182Z,469
2017-01-15T06:33:22.330Z,470
2017-01-15T06:34:22.440Z,468
2017-01-15T06:35:22.546Z,469
2017-01-15T06:36:22.649Z,470
2017-01-15T06:37:22.798Z,469
2017-01-15T06:38:22.933Z,470
2017-01-15T06:39:23.039Z,470
2017-01-15T06:40:23.148Z,469
2017-01-15T06:41:23.232Z,470
2017-01-15T06:42:23.304Z,470
2017-01-15T06:43:23.459Z,470
2017-01-15T06:44:23.572Z,470
2017-01-15T06:45:23.722Z,471
2017-01-15T06:46:23.846Z,472
2017-01-15T06:47:23.957Z,472
2017-01-15T06:48:24.043Z,470
2017-01-15T06:49:24.186Z,472
2017-01-15T06:50:24.264Z,471
2017-01-15T06:51:24.374Z,470
2017-01-15T06:52:24.471Z,471
2017-01-15T06:53:24.627Z,474
2017-01-15T06:54:24.712Z,470
2017-01-15T06:55:24.887Z,471
2017-01-15T06:56:24.973Z,471
2017-01-15T06:57:25.039Z,471
2017-01-15T06:58:25.133Z,472
2017-01-15T06:59:25.348Z,475
2017-01-15T07:00:25.444Z,473
2017-01-15T07:01:25.552Z,472
2017-01-15T07:02:25.751Z,472
2017-01-15T07:03:25.847Z,471
2017-01-15T07:04:26.004Z,471
2017-01-15T07:05:26.070Z,471
2017-01-15T07:06:26.158Z,460
2017-01-15T07:07:26.288Z,461
2017-01-15T07:08:26.462Z,459
2017-01-15T07:09:26.628Z,458
2017-01-15T07:10:26.723Z,459
2017-01-15T07:11:26.834Z,462
2017-01-15T07:12:26.956Z,458
2017-01-15T07:13:27.086Z,457
2017-01-15T07:14:27.192Z,457
2017-01-15T07:15:27.357Z,461
2017-01-15T07:16:27.454Z,461
2017-01-15T07:17:27.522Z,463
2017-01-15T07:18:27.623Z,460
2017-01-15T07:19:27.694Z,463
2017-01-15T07:20:27.811Z,460
2017-01-15T07:21:27.973Z,460
2017-01-15T07:22:28.105Z,462
2017-01-15T07:23:28.188Z,460
2017-01-15T07:24:28.386Z,459
2017-01-15T07:25:28.507Z,455
2017-01-15T07:26:28.621Z,454
2017-01-15T07:27:28.726Z,457
2017-01-15T07:28:28.801Z,457
2017-01-15T07:29:28.897Z,457
2017-01-15T07:30:28.986Z,457
2017-01-15T07:31:29.092Z,452
2017-01-15T07:32:29.173Z,455
2017-01-15T07:33:29.369Z,456
2017-01-15T07:34:29.476Z,458
2017-01-15T07:35:29.641Z,458
2017-01-15T07:36:29.740Z,460
2017-01-15T07:37:29.867Z,458
2017-01-15T07:38:29.982Z,462
2017-01-15T07:39:30.085Z,462
2017-01-15T07:40:30.157Z,465
2017-01-15T07:41:30.284Z,464
2017-01-15T07:42:30.399Z,466
2017-01-15T07:43:30.496Z,465
2017-01-15T07:44:30.564Z,465
2017-01-15T07:45:30.672Z,464
2017-01-15T07:46:30.793Z,465
2017-01-15T07:47:33.239Z,465
2017-01-15T07:48:32.092Z,465
2017-01-15T07:49:32.224Z,465
2017-01-15T07:50:32.319Z,464
2017-01-15T07:51:32.423Z,461
2017-01-15T07:52:32.516Z,462
2017-01-15T07:53:32.623Z,461
2017-01-15T07:54:32.699Z,461
2017-01-15T07:55:32.786Z,461
2017-01-15T07:56:32.957Z,463
2017-01-15T07:57:33.034Z,463
2017-01-15T07:58:33.121Z,463
2017-01-15T07:59:33.744Z,460
2017-01-15T08:00:33.310Z,460
2017-01-15T08:01:33.469Z,460
2017-01-15T08:02:33.607Z,460
2017-01-15T08:03:33.728Z,460
2017-01-15T08:04:33.835Z,461
2017-01-15T08:05:33.919Z,461
2017-01-15T08:06:34.022Z,462
2017-01-15T08:07:34.123Z,464
2017-01-15T08:08:34.217Z,469
2017-01-15T08:09:34.352Z,470
2017-01-15T08:10:34.496Z,471
2017-01-15T08:11:34.600Z,473
2017-01-15T08:12:34.699Z,466
2017-01-15T08:13:34.795Z,475
2017-01-15T08:14:34.880Z,483
2017-01-15T08:15:35.015Z,485
2017-01-15T08:16:35.127Z,481
2017-01-15T08:17:35.231Z,473
2017-01-15T08:18:35.301Z,472
2017-01-15T08:19:35.411Z,472
2017-01-15T08:20:35.542Z,471
2017-01-15T08:21:35.671Z,473
2017-01-15T08:22:35.833Z,476
2017-01-15T08:23:35.954Z,473
2017-01-15T08:24:36.065Z,472
2017-01-15T08:25:36.251Z,493
2017-01-15T08:26:36.355Z,470
2017-01-15T08:27:36.421Z,475
2017-01-15T08:28:36.505Z,482
2017-01-15T08:29:36.615Z,487
2017-01-15T08:30:36.737Z,499
2017-01-15T08:31:36.849Z,500
2017-01-15T08:32:37.012Z,508
2017-01-15T08:33:37.162Z,515
2017-01-15T08:34:37.246Z,517
2017-01-15T08:35:37.387Z,511
2017-01-15T08:36:37.467Z,506
2017-01-15T08:37:37.560Z,505
2017-01-15T08:38:37.656Z,503
2017-01-15T08:39:37.752Z,502
2017-01-15T08:40:37.851Z,503
2017-01-15T08:41:37.922Z,502
2017-01-15T08:42:38.142Z,502
2017-01-15T08:43:38.247Z,502
2017-01-15T08:44:38.337Z,500
2017-01-15T08:45:38.460Z,502
2017-01-15T08:46:38.580Z,505
2017-01-15T08:47:38.668Z,508
2017-01-15T08:48:38.837Z,510
2017-01-15T08:49:38.933Z,512
2017-01-15T08:50:39.084Z,516
2017-01-15T08:51:39.165Z,520
2017-01-15T08:52:39.279Z,521
2017-01-15T08:53:39.470Z,518
2017-01-15T08:54:39.535Z,514
2017-01-15T08:55:39.684Z,516
2017-01-15T08:56:39.804Z,522
2017-01-15T08:57:39.874Z,512
2017-01-15T08:58:39.955Z,506
2017-01-15T08:59:40.079Z,478
2017-01-15T09:00:40.204Z,466
2017-01-15T09:01:40.282Z,474
2017-01-15T09:02:40.368Z,473
2017-01-15T09:03:40.458Z,465
2017-01-15T09:04:40.579Z,463
2017-01-15T09:05:40.707Z,467
2017-01-15T09:06:40.822Z,475
2017-01-15T09:07:40.990Z,475
2017-01-15T09:08:41.080Z,465
2017-01-15T09:09:41.203Z,446
2017-01-15T09:10:41.280Z,451
2017-01-15T09:11:41.393Z,465
2017-01-15T09:12:42.254Z,471
2017-01-15T09:13:41.649Z,535
2017-01-15T09:14:41.826Z,532
2017-01-15T09:15:41.958Z,533
2017-01-15T09:16:42.075Z,531
2017-01-15T09:17:42.179Z,526
2017-01-15T09:18:42.292Z,526
2017-01-15T09:19:42.447Z,524
2017-01-15T09:20:42.582Z,524
2017-01-15T09:21:42.682Z,525
2017-01-15T09:22:42.848Z,526
2017-01-15T09:23:42.980Z,526
2017-01-15T09:24:43.753Z,527
2017-01-15T09:25:43.160Z,535
2017-01-15T09:26:43.262Z,535
2017-01-15T09:27:43.361Z,533
2017-01-15T09:28:43.480Z,532
2017-01-15T09:29:44.291Z,532
2017-01-15T09:30:44.394Z,528
2017-01-15T09:31:44.467Z,527
2017-01-15T09:32:44.573Z,528
2017-01-15T09:33:44.712Z,530
2017-01-15T09:34:44.787Z,531
2017-01-15T09:35:44.882Z,534
2017-01-15T09:36:44.983Z,532
2017-01-15T09:37:45.757Z,534
2017-01-15T09:38:45.158Z,534
2017-01-15T09:39:45.258Z,537
2017-01-15T09:40:45.342Z,547
2017-01-15T09:41:45.460Z,550
2017-01-15T09:42:45.557Z,548
2017-01-15T09:43:45.649Z,543
2017-01-15T09:44:45.752Z,538
2017-01-15T09:45:45.848Z,545
2017-01-15T09:46:45.980Z,542
2017-01-15T09:47:46.079Z,547
2017-01-15T09:48:46.168Z,545
2017-01-15T09:49:46.313Z,546
2017-01-15T09:50:46.414Z,544
2017-01-15T09:51:46.530Z,545
2017-01-15T09:52:46.648Z,540
2017-01-15T09:53:46.751Z,543
2017-01-15T09:54:46.860Z,541
2017-01-15T09:55:47.025Z,550
2017-01-15T09:56:47.110Z,548
2017-01-15T09:57:47.251Z,536
2017-01-15T09:58:48.271Z,550
2017-01-15T09:59:48.365Z,550
2017-01-15T10:00:48.461Z,550
2017-01-15T10:01:48.644Z,550
2017-01-15T10:02:48.772Z,551
2017-01-15T10:03:48.868Z,552
2017-01-15T10:04:48.999Z,553
2017-01-15T10:05:49.088Z,553
2017-01-15T10:06:49.195Z,550
2017-01-15T10:07:49.341Z,551
2017-01-15T10:08:49.438Z,550
2017-01-15T10:09:49.631Z,551
2017-01-15T10:10:49.736Z,549
2017-01-15T10:11:49.868Z,550
2017-01-15T10:12:49.977Z,551
2017-01-15T10:13:50.093Z,549
2017-01-15T10:14:50.185Z,545
2017-01-15T10:15:50.312Z,541
2017-01-15T10:16:50.393Z,541
2017-01-15T10:17:50.597Z,542
2017-01-15T10:18:50.684Z,543
2017-01-15T10:19:51.264Z,543
2017-01-15T10:20:50.890Z,543
2017-01-15T10:21:51.010Z,542
2017-01-15T10:22:51.108Z,541
2017-01-15T10:23:51.198Z,541
2017-01-15T10:24:51.303Z,543
2017-01-15T10:25:51.435Z,548
2017-01-15T10:26:51.515Z,547
2017-01-15T10:27:51.682Z,545
2017-01-15T10:28:51.775Z,544
2017-01-15T10:29:51.842Z,544
2017-01-15T10:30:51.961Z,543
2017-01-15T10:31:52.075Z,542
2017-01-15T10:32:52.180Z,543
2017-01-15T10:33:52.285Z,542
2017-01-15T10:34:52.475Z,543
2017-01-15T10:35:52.560Z,541
2017-01-15T10:36:52.668Z,542
2017-01-15T10:37:52.763Z,541
2017-01-15T10:38:53.779Z,542
2017-01-15T10:39:52.967Z,542
2017-01-15T10:40:53.103Z,542
2017-01-15T10:41:53.222Z,542
2017-01-15T10:42:53.333Z,542
2017-01-15T10:43:53.430Z,543
2017-01-15T10:44:53.494Z,544
2017-01-15T10:45:53.605Z,544
2017-01-15T10:46:53.684Z,541
2017-01-15T10:47:53.791Z,541
2017-01-15T10:48:53.902Z,550
2017-01-15T10:49:53.974Z,550
2017-01-15T10:50:54.104Z,550
2017-01-15T10:51:54.184Z,549
2017-01-15T10:52:54.377Z,550
2017-01-15T10:53:54.500Z,550
2017-01-15T10:54:54.603Z,550
2017-01-15T10:55:54.756Z,549
2017-01-15T10:56:54.910Z,551
2017-01-15T10:57:54.985Z,551
2017-01-15T10:58:55.130Z,551
2017-01-15T10:59:55.205Z,552
2017-01-15T11:00:55.371Z,552
2017-01-15T11:01:55.447Z,552
2017-01-15T11:02:55.551Z,551
2017-01-15T11:03:55.696Z,553
2017-01-15T11:04:55.837Z,553
2017-01-15T11:05:55.924Z,552
2017-01-15T11:06:56.051Z,551
2017-01-15T11:07:56.165Z,551
2017-01-15T11:08:56.332Z,550
2017-01-15T11:09:56.437Z,549
2017-01-15T11:10:56.533Z,550
2017-01-15T11:11:56.605Z,550
2017-01-15T11:12:56.692Z,550
2017-01-15T11:13:56.786Z,549
2017-01-15T11:14:56.917Z,550
2017-01-15T11:15:57.030Z,549
2017-01-15T11:16:57.159Z,550
2017-01-15T11:17:57.279Z,548
2017-01-15T11:18:57.374Z,548
2017-01-15T11:19:58.281Z,550
2017-01-15T11:20:57.564Z,551
2017-01-15T11:21:57.675Z,552
2017-01-15T11:22:57.765Z,551
2017-01-15T11:23:57.863Z,552
2017-01-15T11:24:57.961Z,553
2017-01-15T11:25:58.032Z,555
2017-01-15T11:26:58.157Z,554
2017-01-15T11:27:58.288Z,554
2017-01-15T11:28:58.381Z,554
2017-01-15T11:29:58.465Z,552
2017-01-15T11:30:58.613Z,554
2017-01-15T11:31:58.725Z,553
2017-01-15T11:32:58.868Z,552
2017-01-15T11:33:59.011Z,553
2017-01-15T11:34:59.792Z,552
2017-01-15T11:35:59.277Z,552
2017-01-15T11:36:59.365Z,552
2017-01-15T11:37:59.499Z,551
2017-01-15T11:38:59.630Z,551
2017-01-15T11:39:59.761Z,551
2017-01-15T11:40:59.846Z,551
2017-01-15T11:41:59.959Z,550
2017-01-15T11:43:00.088Z,550
2017-01-15T11:44:00.256Z,550
2017-01-15T11:45:00.352Z,549
2017-01-15T11:46:00.458Z,549
2017-01-15T11:47:00.551Z,549
2017-01-15T11:48:00.799Z,548
2017-01-15T11:49:00.882Z,548
2017-01-15T11:50:01.001Z,548
2017-01-15T11:51:01.162Z,548
2017-01-15T11:52:01.267Z,548
2017-01-15T11:53:01.387Z,549
2017-01-15T11:54:01.475Z,548
2017-01-15T11:55:01.575Z,550
2017-01-15T11:56:01.736Z,557
2017-01-15T11:57:01.814Z,556
2017-01-15T11:58:01.943Z,557
2017-01-15T11:59:02.055Z,557
2017-01-15T12:00:02.242Z,557
2017-01-15T12:01:02.398Z,558
2017-01-15T12:02:02.501Z,557
2017-01-15T12:03:02.639Z,557
2017-01-15T12:04:02.831Z,557
2017-01-15T12:05:02.915Z,557
2017-01-15T12:06:03.078Z,557
2017-01-15T12:07:03.184Z,556
2017-01-15T12:08:03.276Z,555
2017-01-15T12:09:03.410Z,555
2017-01-15T12:10:03.479Z,555
2017-01-15T12:11:03.593Z,555
2017-01-15T12:12:03.709Z,554
2017-01-15T12:13:03.847Z,555
2017-01-15T12:14:03.964Z,555
2017-01-15T12:15:04.065Z,555
2017-01-15T12:16:04.220Z,554
2017-01-15T12:17:04.335Z,554
2017-01-15T12:18:04.479Z,555
2017-01-15T12:19:04.590Z,556
2017-01-15T12:20:04.672Z,556
2017-01-15T12:21:04.754Z,556
2017-01-15T12:22:04.890Z,555
2017-01-15T12:23:05.035Z,554
2017-01-15T12:24:05.138Z,554
2017-01-15T12:25:05.223Z,554
2017-01-15T12:26:05.306Z,553
2017-01-15T12:27:05.394Z,553
2017-01-15T12:28:05.510Z,554
2017-01-15T12:29:05.734Z,553
2017-01-15T12:30:05.841Z,552
2017-01-15T12:31:05.976Z,553
2017-01-15T12:32:06.106Z,554
2017-01-15T12:33:06.238Z,555
2017-01-15T12:34:06.329Z,555
2017-01-15T12:35:06.419Z,555
2017-01-15T12:36:06.578Z,554
2017-01-15T12:37:06.703Z,554
2017-01-15T12:38:06.825Z,554
2017-01-15T12:39:07.814Z,555
2017-01-15T12:40:07.017Z,555
2017-01-15T12:41:07.133Z,548
2017-01-15T12:42:07.929Z,545
2017-01-15T12:43:08.811Z,543
2017-01-15T12:44:08.252Z,547
2017-01-15T12:45:08.391Z,545
2017-01-15T12:46:08.496Z,541
2017-01-15T12:47:08.643Z,543
2017-01-15T12:48:08.776Z,540
2017-01-15T12:49:08.880Z,545
2017-01-15T12:50:08.945Z,546
2017-01-15T12:51:09.105Z,544
2017-01-15T12:52:09.210Z,537
2017-01-15T12:53:09.291Z,540
2017-01-15T12:54:09.374Z,536
2017-01-15T12:55:09.456Z,544
2017-01-15T12:56:09.573Z,541
2017-01-15T12:57:09.790Z,546
2017-01-15T12:58:09.936Z,548
2017-01-15T12:59:10.062Z,547
2017-01-15T13:00:10.279Z,548
2017-01-15T13:01:10.407Z,546
2017-01-15T13:02:11.323Z,544
2017-01-15T13:03:11.459Z,546
2017-01-15T13:04:11.536Z,548
2017-01-15T13:05:11.624Z,547
2017-01-15T13:06:11.728Z,549
2017-01-15T13:07:11.871Z,548
2017-01-15T13:08:11.979Z,545
2017-01-15T13:09:12.129Z,544
2017-01-15T13:10:12.283Z,546
2017-01-15T13:11:12.399Z,550
2017-01-15T13:12:12.492Z,549
2017-01-15T13:13:12.627Z,551
2017-01-15T13:14:12.758Z,555
2017-01-15T13:15:12.877Z,553
2017-01-15T13:16:13.059Z,556
2017-01-15T13:17:13.174Z,555
2017-01-15T13:18:13.268Z,556
2017-01-15T13:19:13.402Z,558
2017-01-15T13:20:13.494Z,558
2017-01-15T13:21:13.695Z,557
2017-01-15T13:22:13.858Z,556
2017-01-15T13:23:13.956Z,557
2017-01-15T13:24:14.190Z,556
2017-01-15T13:25:14.314Z,557
2017-01-15T13:26:14.465Z,556
2017-01-15T13:27:14.596Z,556
2017-01-15T13:28:14.672Z,556
2017-01-15T13:29:14.839Z,556
2017-01-15T13:30:14.995Z,556
2017-01-15T13:31:15.080Z,556
2017-01-15T13:32:15.195Z,556
2017-01-15T13:33:15.331Z,555
2017-01-15T13:34:15.483Z,555
2017-01-15T13:35:15.597Z,555
2017-01-15T13:36:15.696Z,553
2017-01-15T13:37:15.811Z,554
2017-01-15T13:38:15.997Z,555
2017-01-15T13:39:16.131Z,554
2017-01-15T13:40:16.271Z,555
2017-01-15T13:41:16.444Z,556
2017-01-15T13:42:16.597Z,556
2017-01-15T13:43:16.700Z,557
2017-01-15T13:44:16.779Z,556
2017-01-15T13:45:16.868Z,556
2017-01-15T13:46:16.977Z,555
2017-01-15T13:47:17.079Z,554
2017-01-15T13:48:17.833Z,554